sensor_id;sensor_type;location;lat;lon;timestamp;P1;durP1;ratioP1;P2;durP2;ratioP2
51927;SDS011;37953;52.806;18.270;2024-01-11T00:02:19;45.50;;;17.13;;
51927;SDS011;37953;52.806;18.270;2024-01-11T00:04:45;32.30;;;13.20;;
51927;SDS011;37953;52.806;18.270;2024-01-11T00:07:11;32.28;;;11.80;;
51927;SDS011;37953;52.806;18.270;2024-01-11T00:09:43;25.63;;;10.50;;
51927;SDS011;37953;52.806;18.270;2024-01-11T00:12:09;26.00;;;10.68;;
51927;SDS011;37953;52.806;18.270;2024-01-11T00:14:35;34.00;;;10.93;;
51927;SDS011;37953;52.806;18.270;2024-01-11T00:17:01;22.15;;;9.32;;
51927;SDS011;37953;52.806;18.270;2024-01-11T00:19:27;25.77;;;9.25;;
51927;SDS011;37953;52.806;18.270;2024-01-11T00:21:53;29.27;;;10.93;;
51927;SDS011;37953;52.806;18.270;2024-01-11T00:24:19;31.13;;;10.77;;
51927;SDS011;37953;52.806;18.270;2024-01-11T00:26:45;27.20;;;9.85;;
51927;SDS011;37953;52.806;18.270;2024-01-11T00:29:11;34.78;;;9.98;;
51927;SDS011;37953;52.806;18.270;2024-01-11T00:31:37;31.92;;;10.50;;
51927;SDS011;37953;52.806;18.270;2024-01-11T00:34:04;28.77;;;9.48;;
51927;SDS011;37953;52.806;18.270;2024-01-11T00:36:30;30.90;;;9.90;;
51927;SDS011;37953;52.806;18.270;2024-01-11T00:38:56;29.48;;;10.18;;
51927;SDS011;37953;52.806;18.270;2024-01-11T00:41:22;26.30;;;9.63;;
51927;SDS011;37953;52.806;18.270;2024-01-11T00:43:48;31.75;;;10.10;;
51927;SDS011;37953;52.806;18.270;2024-01-11T00:46:13;33.90;;;10.45;;
51927;SDS011;37953;52.806;18.270;2024-01-11T00:48:40;41.53;;;10.68;;
51927;SDS011;37953;52.806;18.270;2024-01-11T00:51:05;28.50;;;9.35;;
51927;SDS011;37953;52.806;18.270;2024-01-11T00:53:32;36.00;;;10.07;;
51927;SDS011;37953;52.806;18.270;2024-01-11T00:56:01;28.48;;;9.57;;
51927;SDS011;37953;52.806;18.270;2024-01-11T00:58:28;31.73;;;9.90;;
51927;SDS011;37953;52.806;18.270;2024-01-11T01:00:54;30.20;;;9.45;;
51927;SDS011;37953;52.806;18.270;2024-01-11T01:03:20;29.73;;;9.20;;
51927;SDS011;37953;52.806;18.270;2024-01-11T01:05:47;37.65;;;9.98;;
51927;SDS011;37953;52.806;18.270;2024-01-11T01:08:14;32.00;;;9.95;;
51927;SDS011;37953;52.806;18.270;2024-01-11T01:10:40;39.10;;;10.23;;
51927;SDS011;37953;52.806;18.270;2024-01-11T01:13:06;27.70;;;9.65;;
51927;SDS011;37953;52.806;18.270;2024-01-11T01:15:32;30.90;;;10.68;;
51927;SDS011;37953;52.806;18.270;2024-01-11T01:17:58;32.33;;;10.23;;
51927;SDS011;37953;52.806;18.270;2024-01-11T01:20:24;44.30;;;11.05;;
51927;SDS011;37953;52.806;18.270;2024-01-11T01:22:50;30.40;;;10.55;;
51927;SDS011;37953;52.806;18.270;2024-01-11T01:25:16;43.50;;;10.80;;
51927;SDS011;37953;52.806;18.270;2024-01-11T01:27:42;32.63;;;9.88;;
51927;SDS011;37953;52.806;18.270;2024-01-11T01:30:08;30.23;;;10.45;;
51927;SDS011;37953;52.806;18.270;2024-01-11T01:32:34;32.15;;;10.82;;
51927;SDS011;37953;52.806;18.270;2024-01-11T01:35:00;31.17;;;10.25;;
51927;SDS011;37953;52.806;18.270;2024-01-11T01:37:26;34.85;;;10.30;;
51927;SDS011;37953;52.806;18.270;2024-01-11T01:39:52;31.00;;;10.00;;
51927;SDS011;37953;52.806;18.270;2024-01-11T01:42:18;29.23;;;10.00;;
51927;SDS011;37953;52.806;18.270;2024-01-11T01:44:45;50.15;;;10.95;;
51927;SDS011;37953;52.806;18.270;2024-01-11T01:47:11;27.98;;;9.70;;
51927;SDS011;37953;52.806;18.270;2024-01-11T01:49:44;30.02;;;9.20;;
51927;SDS011;37953;52.806;18.270;2024-01-11T01:52:14;33.78;;;9.98;;
51927;SDS011;37953;52.806;18.270;2024-01-11T01:54:42;33.08;;;10.13;;
51927;SDS011;37953;52.806;18.270;2024-01-11T01:57:09;29.40;;;9.25;;
51927;SDS011;37953;52.806;18.270;2024-01-11T01:59:36;28.88;;;10.00;;
51927;SDS011;37953;52.806;18.270;2024-01-11T02:02:04;30.92;;;10.13;;
51927;SDS011;37953;52.806;18.270;2024-01-11T02:04:31;29.23;;;9.95;;
51927;SDS011;37953;52.806;18.270;2024-01-11T02:06:57;33.30;;;10.18;;
51927;SDS011;37953;52.806;18.270;2024-01-11T02:09:24;29.70;;;9.43;;
51927;SDS011;37953;52.806;18.270;2024-01-11T02:11:53;36.33;;;10.45;;
51927;SDS011;37953;52.806;18.270;2024-01-11T02:14:19;124.38;;;12.85;;
51927;SDS011;37953;52.806;18.270;2024-01-11T02:16:46;35.63;;;11.40;;
51927;SDS011;37953;52.806;18.270;2024-01-11T02:19:14;34.28;;;11.05;;
51927;SDS011;37953;52.806;18.270;2024-01-11T02:21:44;41.40;;;11.15;;
51927;SDS011;37953;52.806;18.270;2024-01-11T02:24:14;37.63;;;11.20;;
51927;SDS011;37953;52.806;18.270;2024-01-11T02:29:27;37.75;;;11.90;;
51927;SDS011;37953;52.806;18.270;2024-01-11T02:31:54;47.13;;;11.32;;
51927;SDS011;37953;52.806;18.270;2024-01-11T02:36:52;33.70;;;9.85;;
51927;SDS011;37953;52.806;18.270;2024-01-11T02:39:19;35.70;;;10.23;;
51927;SDS011;37953;52.806;18.270;2024-01-11T02:41:47;36.65;;;10.80;;
51927;SDS011;37953;52.806;18.270;2024-01-11T02:46:47;32.67;;;10.48;;
51927;SDS011;37953;52.806;18.270;2024-01-11T02:49:13;38.58;;;10.45;;
51927;SDS011;37953;52.806;18.270;2024-01-11T02:51:39;35.42;;;10.40;;
51927;SDS011;37953;52.806;18.270;2024-01-11T02:54:05;38.22;;;11.38;;
51927;SDS011;37953;52.806;18.270;2024-01-11T02:56:31;33.75;;;10.65;;
51927;SDS011;37953;52.806;18.270;2024-01-11T02:58:57;30.27;;;9.95;;
51927;SDS011;37953;52.806;18.270;2024-01-11T03:01:23;35.28;;;10.63;;
51927;SDS011;37953;52.806;18.270;2024-01-11T03:03:49;34.72;;;10.82;;
51927;SDS011;37953;52.806;18.270;2024-01-11T03:06:16;33.35;;;10.60;;
51927;SDS011;37953;52.806;18.270;2024-01-11T03:08:47;36.72;;;11.30;;
51927;SDS011;37953;52.806;18.270;2024-01-11T03:11:19;32.22;;;10.05;;
51927;SDS011;37953;52.806;18.270;2024-01-11T03:13:45;28.55;;;10.27;;
51927;SDS011;37953;52.806;18.270;2024-01-11T03:16:11;38.90;;;10.00;;
51927;SDS011;37953;52.806;18.270;2024-01-11T03:18:37;39.00;;;11.25;;
51927;SDS011;37953;52.806;18.270;2024-01-11T03:21:03;34.92;;;11.07;;
51927;SDS011;37953;52.806;18.270;2024-01-11T03:23:29;32.30;;;11.05;;
51927;SDS011;37953;52.806;18.270;2024-01-11T03:25:55;34.00;;;10.98;;
51927;SDS011;37953;52.806;18.270;2024-01-11T03:28:21;40.10;;;12.02;;
51927;SDS011;37953;52.806;18.270;2024-01-11T03:30:47;38.75;;;12.43;;
51927;SDS011;37953;52.806;18.270;2024-01-11T03:33:13;43.20;;;12.70;;
51927;SDS011;37953;52.806;18.270;2024-01-11T03:35:39;33.30;;;10.73;;
51927;SDS011;37953;52.806;18.270;2024-01-11T03:38:06;33.97;;;10.57;;
51927;SDS011;37953;52.806;18.270;2024-01-11T03:40:38;31.90;;;10.43;;
51927;SDS011;37953;52.806;18.270;2024-01-11T03:43:04;35.17;;;10.40;;
51927;SDS011;37953;52.806;18.270;2024-01-11T03:45:30;36.28;;;11.48;;
51927;SDS011;37953;52.806;18.270;2024-01-11T03:48:02;37.45;;;11.25;;
51927;SDS011;37953;52.806;18.270;2024-01-11T03:50:28;33.53;;;11.20;;
51927;SDS011;37953;52.806;18.270;2024-01-11T03:52:55;32.47;;;10.68;;
51927;SDS011;37953;52.806;18.270;2024-01-11T03:55:20;40.15;;;10.63;;
51927;SDS011;37953;52.806;18.270;2024-01-11T03:57:47;28.33;;;9.95;;
51927;SDS011;37953;52.806;18.270;2024-01-11T04:00:13;33.67;;;10.88;;
51927;SDS011;37953;52.806;18.270;2024-01-11T04:02:39;32.95;;;10.27;;
51927;SDS011;37953;52.806;18.270;2024-01-11T04:05:05;28.60;;;9.68;;
51927;SDS011;37953;52.806;18.270;2024-01-11T04:07:31;30.02;;;10.60;;
51927;SDS011;37953;52.806;18.270;2024-01-11T04:09:57;36.25;;;10.90;;
51927;SDS011;37953;52.806;18.270;2024-01-11T04:12:23;33.72;;;10.38;;
51927;SDS011;37953;52.806;18.270;2024-01-11T04:14:49;236.52;;;16.38;;
51927;SDS011;37953;52.806;18.270;2024-01-11T04:17:15;28.90;;;10.07;;
51927;SDS011;37953;52.806;18.270;2024-01-11T04:19:41;35.10;;;10.35;;
51927;SDS011;37953;52.806;18.270;2024-01-11T04:22:07;30.30;;;10.63;;
51927;SDS011;37953;52.806;18.270;2024-01-11T04:24:33;34.38;;;11.30;;
51927;SDS011;37953;52.806;18.270;2024-01-11T04:26:59;39.38;;;12.00;;
51927;SDS011;37953;52.806;18.270;2024-01-11T04:29:25;43.05;;;12.93;;
51927;SDS011;37953;52.806;18.270;2024-01-11T04:31:51;38.17;;;12.23;;
51927;SDS011;37953;52.806;18.270;2024-01-11T04:34:16;33.28;;;11.60;;
51927;SDS011;37953;52.806;18.270;2024-01-11T04:36:43;37.70;;;12.52;;
51927;SDS011;37953;52.806;18.270;2024-01-11T04:39:08;40.85;;;14.20;;
51927;SDS011;37953;52.806;18.270;2024-01-11T04:41:35;46.15;;;15.52;;
51927;SDS011;37953;52.806;18.270;2024-01-11T04:44:04;48.63;;;13.40;;
51927;SDS011;37953;52.806;18.270;2024-01-11T04:46:30;59.40;;;20.80;;
51927;SDS011;37953;52.806;18.270;2024-01-11T04:48:59;81.40;;;24.48;;
51927;SDS011;37953;52.806;18.270;2024-01-11T04:51:26;48.42;;;14.70;;
51927;SDS011;37953;52.806;18.270;2024-01-11T04:53:51;78.30;;;22.27;;
51927;SDS011;37953;52.806;18.270;2024-01-11T04:56:17;60.63;;;17.83;;
51927;SDS011;37953;52.806;18.270;2024-01-11T04:58:44;44.97;;;14.07;;
51927;SDS011;37953;52.806;18.270;2024-01-11T05:01:17;50.95;;;16.92;;
51927;SDS011;37953;52.806;18.270;2024-01-11T05:03:48;43.40;;;15.02;;
51927;SDS011;37953;52.806;18.270;2024-01-11T05:06:15;49.38;;;17.85;;
51927;SDS011;37953;52.806;18.270;2024-01-11T05:08:43;44.72;;;15.93;;
51927;SDS011;37953;52.806;18.270;2024-01-11T05:11:30;48.58;;;17.15;;
51927;SDS011;37953;52.806;18.270;2024-01-11T05:13:56;42.88;;;14.98;;
51927;SDS011;37953;52.806;18.270;2024-01-11T05:16:23;43.75;;;17.08;;
51927;SDS011;37953;52.806;18.270;2024-01-11T05:19:00;48.38;;;15.20;;
51927;SDS011;37953;52.806;18.270;2024-01-11T05:21:26;49.70;;;17.20;;
51927;SDS011;37953;52.806;18.270;2024-01-11T05:23:52;51.45;;;17.70;;
51927;SDS011;37953;52.806;18.270;2024-01-11T05:26:19;59.10;;;20.98;;
51927;SDS011;37953;52.806;18.270;2024-01-11T05:28:45;61.47;;;23.73;;
51927;SDS011;37953;52.806;18.270;2024-01-11T05:31:12;58.22;;;22.02;;
51927;SDS011;37953;52.806;18.270;2024-01-11T05:33:50;55.97;;;20.63;;
51927;SDS011;37953;52.806;18.270;2024-01-11T05:36:16;63.03;;;22.13;;
51927;SDS011;37953;52.806;18.270;2024-01-11T05:38:41;53.35;;;18.90;;
51927;SDS011;37953;52.806;18.270;2024-01-11T05:41:08;62.13;;;20.08;;
51927;SDS011;37953;52.806;18.270;2024-01-11T05:43:34;53.53;;;18.98;;
51927;SDS011;37953;52.806;18.270;2024-01-11T05:46:01;49.90;;;16.88;;
51927;SDS011;37953;52.806;18.270;2024-01-11T05:48:27;52.33;;;17.48;;
51927;SDS011;37953;52.806;18.270;2024-01-11T05:50:53;51.03;;;17.38;;
51927;SDS011;37953;52.806;18.270;2024-01-11T05:53:19;56.13;;;21.33;;
51927;SDS011;37953;52.806;18.270;2024-01-11T05:55:46;59.53;;;23.30;;
51927;SDS011;37953;52.806;18.270;2024-01-11T05:58:13;47.58;;;17.17;;
51927;SDS011;37953;52.806;18.270;2024-01-11T06:00:39;44.83;;;18.35;;
51927;SDS011;37953;52.806;18.270;2024-01-11T06:03:05;58.00;;;21.85;;
51927;SDS011;37953;52.806;18.270;2024-01-11T06:05:32;61.92;;;23.00;;
51927;SDS011;37953;52.806;18.270;2024-01-11T06:07:58;52.42;;;19.63;;
51927;SDS011;37953;52.806;18.270;2024-01-11T06:10:24;49.25;;;19.90;;
51927;SDS011;37953;52.806;18.270;2024-01-11T06:12:50;65.35;;;26.65;;
51927;SDS011;37953;52.806;18.270;2024-01-11T06:15:16;63.92;;;23.55;;
51927;SDS011;37953;52.806;18.270;2024-01-11T06:17:42;56.10;;;21.00;;
51927;SDS011;37953;52.806;18.270;2024-01-11T06:20:08;50.83;;;18.85;;
51927;SDS011;37953;52.806;18.270;2024-01-11T06:22:38;49.13;;;19.05;;
51927;SDS011;37953;52.806;18.270;2024-01-11T06:25:04;54.10;;;19.58;;
51927;SDS011;37953;52.806;18.270;2024-01-11T06:27:31;52.17;;;20.10;;
51927;SDS011;37953;52.806;18.270;2024-01-11T06:29:57;60.13;;;21.25;;
51927;SDS011;37953;52.806;18.270;2024-01-11T06:32:23;72.63;;;23.77;;
51927;SDS011;37953;52.806;18.270;2024-01-11T06:34:56;63.67;;;21.55;;
51927;SDS011;37953;52.806;18.270;2024-01-11T06:37:22;55.03;;;20.33;;
51927;SDS011;37953;52.806;18.270;2024-01-11T06:39:49;51.22;;;18.92;;
51927;SDS011;37953;52.806;18.270;2024-01-11T06:42:15;54.15;;;19.95;;
51927;SDS011;37953;52.806;18.270;2024-01-11T06:44:41;47.75;;;17.58;;
51927;SDS011;37953;52.806;18.270;2024-01-11T06:47:08;37.38;;;14.77;;
51927;SDS011;37953;52.806;18.270;2024-01-11T06:49:37;45.53;;;15.75;;
51927;SDS011;37953;52.806;18.270;2024-01-11T06:52:05;40.08;;;16.67;;
51927;SDS011;37953;52.806;18.270;2024-01-11T06:54:31;46.85;;;19.38;;
51927;SDS011;37953;52.806;18.270;2024-01-11T06:56:58;48.28;;;18.92;;
51927;SDS011;37953;52.806;18.270;2024-01-11T06:59:24;58.92;;;23.52;;
51927;SDS011;37953;52.806;18.270;2024-01-11T07:01:50;52.60;;;19.20;;
51927;SDS011;37953;52.806;18.270;2024-01-11T07:04:16;47.45;;;18.55;;
51927;SDS011;37953;52.806;18.270;2024-01-11T07:06:42;39.75;;;15.32;;
51927;SDS011;37953;52.806;18.270;2024-01-11T07:09:08;35.78;;;15.05;;
51927;SDS011;37953;52.806;18.270;2024-01-11T07:11:40;37.78;;;14.93;;
51927;SDS011;37953;52.806;18.270;2024-01-11T07:14:09;29.63;;;13.05;;
51927;SDS011;37953;52.806;18.270;2024-01-11T07:16:35;36.60;;;14.90;;
51927;SDS011;37953;52.806;18.270;2024-01-11T07:19:01;41.15;;;14.63;;
51927;SDS011;37953;52.806;18.270;2024-01-11T07:21:27;34.45;;;13.90;;
51927;SDS011;37953;52.806;18.270;2024-01-11T07:23:57;34.42;;;13.35;;
51927;SDS011;37953;52.806;18.270;2024-01-11T07:26:23;32.83;;;13.45;;
51927;SDS011;37953;52.806;18.270;2024-01-11T07:28:50;34.88;;;13.55;;
51927;SDS011;37953;52.806;18.270;2024-01-11T07:31:16;34.78;;;13.65;;
51927;SDS011;37953;52.806;18.270;2024-01-11T07:33:43;44.60;;;18.02;;
51927;SDS011;37953;52.806;18.270;2024-01-11T07:36:10;45.65;;;19.98;;
51927;SDS011;37953;52.806;18.270;2024-01-11T07:38:36;42.63;;;18.58;;
51927;SDS011;37953;52.806;18.270;2024-01-11T07:41:08;65.95;;;25.23;;
51927;SDS011;37953;52.806;18.270;2024-01-11T07:43:34;61.28;;;22.85;;
51927;SDS011;37953;52.806;18.270;2024-01-11T07:46:01;51.92;;;21.63;;
51927;SDS011;37953;52.806;18.270;2024-01-11T07:48:29;49.55;;;19.15;;
51927;SDS011;37953;52.806;18.270;2024-01-11T07:50:55;51.33;;;19.90;;
51927;SDS011;37953;52.806;18.270;2024-01-11T07:53:21;60.95;;;20.95;;
51927;SDS011;37953;52.806;18.270;2024-01-11T07:55:47;63.92;;;20.90;;
51927;SDS011;37953;52.806;18.270;2024-01-11T07:58:13;57.83;;;20.67;;
51927;SDS011;37953;52.806;18.270;2024-01-11T08:00:46;55.70;;;20.00;;
51927;SDS011;37953;52.806;18.270;2024-01-11T08:03:17;50.97;;;18.58;;
51927;SDS011;37953;52.806;18.270;2024-01-11T08:05:43;50.92;;;18.48;;
51927;SDS011;37953;52.806;18.270;2024-01-11T08:08:10;52.15;;;18.83;;
51927;SDS011;37953;52.806;18.270;2024-01-11T08:10:36;52.33;;;18.48;;
51927;SDS011;37953;52.806;18.270;2024-01-11T08:13:02;56.50;;;19.30;;
51927;SDS011;37953;52.806;18.270;2024-01-11T08:15:28;55.20;;;20.50;;
51927;SDS011;37953;52.806;18.270;2024-01-11T08:17:54;68.93;;;23.48;;
51927;SDS011;37953;52.806;18.270;2024-01-11T08:20:20;87.25;;;26.13;;
51927;SDS011;37953;52.806;18.270;2024-01-11T08:22:47;59.30;;;21.85;;
51927;SDS011;37953;52.806;18.270;2024-01-11T08:25:13;54.67;;;20.38;;
51927;SDS011;37953;52.806;18.270;2024-01-11T08:27:39;47.63;;;18.13;;
51927;SDS011;37953;52.806;18.270;2024-01-11T08:30:06;70.25;;;24.35;;
51927;SDS011;37953;52.806;18.270;2024-01-11T08:32:33;70.70;;;24.52;;
51927;SDS011;37953;52.806;18.270;2024-01-11T08:35:05;60.13;;;21.55;;
51927;SDS011;37953;52.806;18.270;2024-01-11T08:37:32;73.28;;;26.35;;
51927;SDS011;37953;52.806;18.270;2024-01-11T08:39:58;67.43;;;23.63;;
51927;SDS011;37953;52.806;18.270;2024-01-11T08:42:24;61.17;;;21.35;;
51927;SDS011;37953;52.806;18.270;2024-01-11T08:44:50;142.07;;;24.03;;
51927;SDS011;37953;52.806;18.270;2024-01-11T08:47:18;87.47;;;28.02;;
51927;SDS011;37953;52.806;18.270;2024-01-11T08:49:44;88.15;;;30.48;;
51927;SDS011;37953;52.806;18.270;2024-01-11T08:52:10;78.15;;;27.65;;
51927;SDS011;37953;52.806;18.270;2024-01-11T08:54:36;90.50;;;29.83;;
51927;SDS011;37953;52.806;18.270;2024-01-11T08:57:02;103.78;;;33.28;;
51927;SDS011;37953;52.806;18.270;2024-01-11T08:59:28;88.88;;;31.00;;
51927;SDS011;37953;52.806;18.270;2024-01-11T09:01:54;84.80;;;28.83;;
51927;SDS011;37953;52.806;18.270;2024-01-11T09:04:20;109.45;;;34.88;;
51927;SDS011;37953;52.806;18.270;2024-01-11T09:06:46;80.75;;;28.02;;
51927;SDS011;37953;52.806;18.270;2024-01-11T09:09:12;70.55;;;26.35;;
51927;SDS011;37953;52.806;18.270;2024-01-11T09:11:39;71.00;;;27.33;;
51927;SDS011;37953;52.806;18.270;2024-01-11T09:14:06;109.90;;;36.55;;
51927;SDS011;37953;52.806;18.270;2024-01-11T09:16:32;92.22;;;30.77;;
51927;SDS011;37953;52.806;18.270;2024-01-11T09:18:58;89.53;;;31.48;;
51927;SDS011;37953;52.806;18.270;2024-01-11T09:21:28;139.32;;;45.50;;
51927;SDS011;37953;52.806;18.270;2024-01-11T09:23:53;106.95;;;37.65;;
51927;SDS011;37953;52.806;18.270;2024-01-11T09:26:20;101.25;;;35.50;;
51927;SDS011;37953;52.806;18.270;2024-01-11T09:28:53;96.97;;;36.53;;
51927;SDS011;37953;52.806;18.270;2024-01-11T09:31:19;92.28;;;35.70;;
51927;SDS011;37953;52.806;18.270;2024-01-11T09:33:44;97.63;;;34.45;;
51927;SDS011;37953;52.806;18.270;2024-01-11T09:36:12;130.30;;;41.72;;
51927;SDS011;37953;52.806;18.270;2024-01-11T09:38:38;120.47;;;40.97;;
51927;SDS011;37953;52.806;18.270;2024-01-11T09:41:08;105.82;;;34.75;;
51927;SDS011;37953;52.806;18.270;2024-01-11T09:43:35;99.95;;;32.67;;
51927;SDS011;37953;52.806;18.270;2024-01-11T09:46:04;128.13;;;42.95;;
51927;SDS011;37953;52.806;18.270;2024-01-11T09:48:35;190.45;;;56.05;;
51927;SDS011;37953;52.806;18.270;2024-01-11T09:51:03;129.60;;;42.38;;
51927;SDS011;37953;52.806;18.270;2024-01-11T09:53:37;98.93;;;34.67;;
51927;SDS011;37953;52.806;18.270;2024-01-11T09:56:07;109.25;;;32.65;;
51927;SDS011;37953;52.806;18.270;2024-01-11T09:58:35;109.55;;;36.20;;
51927;SDS011;37953;52.806;18.270;2024-01-11T10:01:09;119.40;;;37.30;;
51927;SDS011;37953;52.806;18.270;2024-01-11T10:03:39;109.82;;;32.08;;
51927;SDS011;37953;52.806;18.270;2024-01-11T10:06:06;93.55;;;31.75;;
51927;SDS011;37953;52.806;18.270;2024-01-11T10:08:32;92.38;;;31.08;;
51927;SDS011;37953;52.806;18.270;2024-01-11T10:10:59;82.25;;;30.00;;
51927;SDS011;37953;52.806;18.270;2024-01-11T10:13:26;95.78;;;33.35;;
51927;SDS011;37953;52.806;18.270;2024-01-11T10:16:05;97.53;;;33.30;;
51927;SDS011;37953;52.806;18.270;2024-01-11T10:18:33;94.60;;;33.20;;
51927;SDS011;37953;52.806;18.270;2024-01-11T10:20:59;80.45;;;29.17;;
51927;SDS011;37953;52.806;18.270;2024-01-11T10:23:26;111.05;;;38.00;;
51927;SDS011;37953;52.806;18.270;2024-01-11T10:25:55;90.95;;;31.65;;
51927;SDS011;37953;52.806;18.270;2024-01-11T10:28:22;125.47;;;37.42;;
51927;SDS011;37953;52.806;18.270;2024-01-11T10:30:50;103.90;;;33.55;;
51927;SDS011;37953;52.806;18.270;2024-01-11T10:33:21;93.38;;;30.70;;
51927;SDS011;37953;52.806;18.270;2024-01-11T10:35:48;104.38;;;30.90;;
51927;SDS011;37953;52.806;18.270;2024-01-11T10:38:15;96.80;;;30.95;;
51927;SDS011;37953;52.806;18.270;2024-01-11T10:40:42;74.63;;;26.08;;
51927;SDS011;37953;52.806;18.270;2024-01-11T10:43:08;76.95;;;27.65;;
51927;SDS011;37953;52.806;18.270;2024-01-11T10:45:39;75.03;;;28.25;;
51927;SDS011;37953;52.806;18.270;2024-01-11T10:48:14;71.83;;;23.83;;
51927;SDS011;37953;52.806;18.270;2024-01-11T10:50:45;78.18;;;28.10;;
51927;SDS011;37953;52.806;18.270;2024-01-11T10:55:50;108.70;;;35.85;;
51927;SDS011;37953;52.806;18.270;2024-01-11T10:58:16;141.32;;;43.05;;
51927;SDS011;37953;52.806;18.270;2024-01-11T11:00:43;85.90;;;29.42;;
51927;SDS011;37953;52.806;18.270;2024-01-11T11:03:23;69.32;;;25.40;;
51927;SDS011;37953;52.806;18.270;2024-01-11T11:05:52;97.40;;;33.72;;
51927;SDS011;37953;52.806;18.270;2024-01-11T11:08:20;127.65;;;41.70;;
51927;SDS011;37953;52.806;18.270;2024-01-11T11:10:49;92.38;;;31.35;;
51927;SDS011;37953;52.806;18.270;2024-01-11T11:13:26;84.60;;;29.05;;
51927;SDS011;37953;52.806;18.270;2024-01-11T11:15:53;77.13;;;27.63;;
51927;SDS011;37953;52.806;18.270;2024-01-11T11:18:19;108.05;;;37.08;;
51927;SDS011;37953;52.806;18.270;2024-01-11T11:20:46;69.25;;;26.45;;
51927;SDS011;37953;52.806;18.270;2024-01-11T11:23:17;98.13;;;32.80;;
51927;SDS011;37953;52.806;18.270;2024-01-11T11:25:48;126.68;;;40.08;;
51927;SDS011;37953;52.806;18.270;2024-01-11T11:28:17;83.70;;;32.05;;
51927;SDS011;37953;52.806;18.270;2024-01-11T11:30:44;84.72;;;32.00;;
51927;SDS011;37953;52.806;18.270;2024-01-11T11:33:17;76.45;;;29.15;;
51927;SDS011;37953;52.806;18.270;2024-01-11T11:35:48;88.43;;;33.08;;
51927;SDS011;37953;52.806;18.270;2024-01-11T11:38:26;69.25;;;25.70;;
51927;SDS011;37953;52.806;18.270;2024-01-11T11:40:55;90.35;;;31.15;;
51927;SDS011;37953;52.806;18.270;2024-01-11T11:43:22;102.32;;;34.15;;
51927;SDS011;37953;52.806;18.270;2024-01-11T11:45:50;89.88;;;32.20;;
51927;SDS011;37953;52.806;18.270;2024-01-11T11:51:15;59.67;;;24.77;;
51927;SDS011;37953;52.806;18.270;2024-01-11T11:53:43;53.55;;;21.70;;
51927;SDS011;37953;52.806;18.270;2024-01-11T11:56:11;63.03;;;25.63;;
51927;SDS011;37953;52.806;18.270;2024-01-11T11:58:43;69.55;;;29.58;;
51927;SDS011;37953;52.806;18.270;2024-01-11T12:01:11;55.10;;;23.92;;
51927;SDS011;37953;52.806;18.270;2024-01-11T12:03:37;49.33;;;21.25;;
51927;SDS011;37953;52.806;18.270;2024-01-11T12:06:09;43.15;;;17.83;;
51927;SDS011;37953;52.806;18.270;2024-01-11T12:08:41;44.92;;;19.40;;
51927;SDS011;37953;52.806;18.270;2024-01-11T12:11:08;41.03;;;18.38;;
51927;SDS011;37953;52.806;18.270;2024-01-11T12:13:34;39.58;;;16.80;;
51927;SDS011;37953;52.806;18.270;2024-01-11T12:16:01;35.78;;;16.13;;
51927;SDS011;37953;52.806;18.270;2024-01-11T12:18:27;34.55;;;14.73;;
51927;SDS011;37953;52.806;18.270;2024-01-11T12:20:53;43.55;;;16.17;;
51927;SDS011;37953;52.806;18.270;2024-01-11T12:23:19;34.70;;;14.20;;
51927;SDS011;37953;52.806;18.270;2024-01-11T12:25:45;33.42;;;16.35;;
51927;SDS011;37953;52.806;18.270;2024-01-11T12:28:12;35.88;;;16.50;;
51927;SDS011;37953;52.806;18.270;2024-01-11T12:30:38;44.33;;;18.20;;
51927;SDS011;37953;52.806;18.270;2024-01-11T12:33:04;37.55;;;15.00;;
51927;SDS011;37953;52.806;18.270;2024-01-11T12:35:31;35.72;;;14.18;;
51927;SDS011;37953;52.806;18.270;2024-01-11T12:38:02;37.38;;;14.45;;
51927;SDS011;37953;52.806;18.270;2024-01-11T12:40:37;31.38;;;13.68;;
51927;SDS011;37953;52.806;18.270;2024-01-11T12:43:04;27.85;;;12.75;;
51927;SDS011;37953;52.806;18.270;2024-01-11T12:45:34;36.72;;;12.65;;
51927;SDS011;37953;52.806;18.270;2024-01-11T12:48:00;28.70;;;13.25;;
51927;SDS011;37953;52.806;18.270;2024-01-11T12:50:30;27.58;;;13.57;;
51927;SDS011;37953;52.806;18.270;2024-01-11T12:55:47;27.50;;;12.13;;
51927;SDS011;37953;52.806;18.270;2024-01-11T12:58:19;27.13;;;11.52;;
51927;SDS011;37953;52.806;18.270;2024-01-11T13:00:47;26.73;;;11.90;;
51927;SDS011;37953;52.806;18.270;2024-01-11T13:03:14;34.70;;;13.13;;
51927;SDS011;37953;52.806;18.270;2024-01-11T13:05:41;35.42;;;12.85;;
51927;SDS011;37953;52.806;18.270;2024-01-11T13:08:07;27.65;;;12.73;;
51927;SDS011;37953;52.806;18.270;2024-01-11T13:10:40;35.25;;;13.02;;
51927;SDS011;37953;52.806;18.270;2024-01-11T13:13:07;29.33;;;12.52;;
51927;SDS011;37953;52.806;18.270;2024-01-11T13:15:33;26.80;;;11.27;;
51927;SDS011;37953;52.806;18.270;2024-01-11T13:18:00;29.17;;;12.20;;
51927;SDS011;37953;52.806;18.270;2024-01-11T13:20:27;23.45;;;10.32;;
51927;SDS011;37953;52.806;18.270;2024-01-11T13:25:47;24.38;;;10.88;;
51927;SDS011;37953;52.806;18.270;2024-01-11T13:28:15;24.13;;;10.50;;
51927;SDS011;37953;52.806;18.270;2024-01-11T13:30:42;25.05;;;11.02;;
51927;SDS011;37953;52.806;18.270;2024-01-11T13:33:10;20.75;;;10.52;;
51927;SDS011;37953;52.806;18.270;2024-01-11T13:35:37;22.20;;;10.02;;
51927;SDS011;37953;52.806;18.270;2024-01-11T13:38:04;22.83;;;10.57;;
51927;SDS011;37953;52.806;18.270;2024-01-11T13:40:37;22.75;;;9.70;;
51927;SDS011;37953;52.806;18.270;2024-01-11T13:43:05;19.17;;;8.85;;
51927;SDS011;37953;52.806;18.270;2024-01-11T13:45:31;31.02;;;10.02;;
51927;SDS011;37953;52.806;18.270;2024-01-11T13:47:57;21.00;;;9.68;;
51927;SDS011;37953;52.806;18.270;2024-01-11T13:50:24;21.65;;;8.60;;
51927;SDS011;37953;52.806;18.270;2024-01-11T13:52:51;19.67;;;8.75;;
51927;SDS011;37953;52.806;18.270;2024-01-11T13:55:17;16.30;;;8.07;;
51927;SDS011;37953;52.806;18.270;2024-01-11T13:57:46;20.20;;;8.93;;
51927;SDS011;37953;52.806;18.270;2024-01-11T14:00:13;20.52;;;9.00;;
51927;SDS011;37953;52.806;18.270;2024-01-11T14:02:40;22.85;;;9.45;;
51927;SDS011;37953;52.806;18.270;2024-01-11T14:05:07;21.17;;;9.00;;
51927;SDS011;37953;52.806;18.270;2024-01-11T14:07:37;18.38;;;7.85;;
51927;SDS011;37953;52.806;18.270;2024-01-11T14:10:05;23.50;;;10.18;;
51927;SDS011;37953;52.806;18.270;2024-01-11T14:12:34;25.55;;;9.75;;
51927;SDS011;37953;52.806;18.270;2024-01-11T14:17:29;17.30;;;8.50;;
51927;SDS011;37953;52.806;18.270;2024-01-11T14:19:55;21.17;;;9.07;;
51927;SDS011;37953;52.806;18.270;2024-01-11T14:22:21;23.88;;;9.25;;
51927;SDS011;37953;52.806;18.270;2024-01-11T14:24:47;22.70;;;9.65;;
51927;SDS011;37953;52.806;18.270;2024-01-11T14:27:13;23.58;;;9.00;;
51927;SDS011;37953;52.806;18.270;2024-01-11T14:29:39;32.40;;;9.63;;
51927;SDS011;37953;52.806;18.270;2024-01-11T14:32:06;22.70;;;9.98;;